sensor_id;sensor_type;location;lat;lon;timestamp;P1;durP1;ratioP1;P2;durP2;ratioP2
19219;SDS011;9744;49.364;7.484;2023-04-19T00:01:54;20.50;;;12.82;;
19219;SDS011;9744;49.364;7.484;2023-04-19T00:04:23;21.23;;;14.20;;
19219;SDS011;9744;49.364;7.484;2023-04-19T00:06:51;21.30;;;14.85;;
19219;SDS011;9744;49.364;7.484;2023-04-19T00:09:18;20.45;;;13.57;;
19219;SDS011;9744;49.364;7.484;2023-04-19T00:11:45;25.83;;;15.05;;
19219;SDS011;9744;49.364;7.484;2023-04-19T00:14:12;23.45;;;14.68;;
19219;SDS011;9744;49.364;7.484;2023-04-19T00:16:39;20.98;;;13.15;;
19219;SDS011;9744;49.364;7.484;2023-04-19T00:19:07;21.23;;;13.55;;
19219;SDS011;9744;49.364;7.484;2023-04-19T00:21:36;23.00;;;13.40;;
19219;SDS011;9744;49.364;7.484;2023-04-19T00:24:03;19.73;;;13.90;;
19219;SDS011;9744;49.364;7.484;2023-04-19T00:26:31;19.23;;;13.38;;
19219;SDS011;9744;49.364;7.484;2023-04-19T00:28:58;21.25;;;12.90;;
19219;SDS011;9744;49.364;7.484;2023-04-19T00:31:25;21.23;;;13.73;;
19219;SDS011;9744;49.364;7.484;2023-04-19T00:33:52;24.63;;;14.48;;
19219;SDS011;9744;49.364;7.484;2023-04-19T00:36:19;22.02;;;14.10;;
19219;SDS011;9744;49.364;7.484;2023-04-19T00:38:48;21.23;;;15.00;;
19219;SDS011;9744;49.364;7.484;2023-04-19T00:41:15;18.30;;;12.95;;
19219;SDS011;9744;49.364;7.484;2023-04-19T00:43:42;18.73;;;12.48;;
19219;SDS011;9744;49.364;7.484;2023-04-19T00:46:10;20.55;;;14.02;;
19219;SDS011;9744;49.364;7.484;2023-04-19T00:48:37;20.95;;;12.85;;
19219;SDS011;9744;49.364;7.484;2023-04-19T00:51:04;24.48;;;13.45;;
19219;SDS011;9744;49.364;7.484;2023-04-19T00:56:06;20.00;;;12.77;;
19219;SDS011;9744;49.364;7.484;2023-04-19T00:58:35;20.77;;;13.02;;
19219;SDS011;9744;49.364;7.484;2023-04-19T01:01:04;18.45;;;12.23;;
19219;SDS011;9744;49.364;7.484;2023-04-19T01:03:31;17.58;;;12.18;;
19219;SDS011;9744;49.364;7.484;2023-04-19T01:05:59;16.38;;;11.77;;
19219;SDS011;9744;49.364;7.484;2023-04-19T01:08:26;21.30;;;13.68;;
19219;SDS011;9744;49.364;7.484;2023-04-19T01:10:53;21.42;;;13.88;;
19219;SDS011;9744;49.364;7.484;2023-04-19T01:13:22;18.80;;;12.90;;
19219;SDS011;9744;49.364;7.484;2023-04-19T01:15:49;19.02;;;12.93;;
19219;SDS011;9744;49.364;7.484;2023-04-19T01:18:19;17.98;;;12.18;;
19219;SDS011;9744;49.364;7.484;2023-04-19T01:20:48;18.75;;;12.02;;
19219;SDS011;9744;49.364;7.484;2023-04-19T01:23:16;17.95;;;11.65;;
19219;SDS011;9744;49.364;7.484;2023-04-19T01:25:43;16.65;;;11.63;;
19219;SDS011;9744;49.364;7.484;2023-04-19T01:28:12;21.25;;;12.27;;
19219;SDS011;9744;49.364;7.484;2023-04-19T01:30:39;17.40;;;11.30;;
19219;SDS011;9744;49.364;7.484;2023-04-19T01:33:06;17.92;;;11.75;;
19219;SDS011;9744;49.364;7.484;2023-04-19T01:35:33;15.25;;;10.40;;
19219;SDS011;9744;49.364;7.484;2023-04-19T01:38:01;16.45;;;10.63;;
19219;SDS011;9744;49.364;7.484;2023-04-19T01:40:31;16.55;;;11.32;;
19219;SDS011;9744;49.364;7.484;2023-04-19T01:42:58;15.52;;;10.50;;
19219;SDS011;9744;49.364;7.484;2023-04-19T01:45:25;16.40;;;11.15;;
19219;SDS011;9744;49.364;7.484;2023-04-19T01:47:52;15.10;;;10.32;;
19219;SDS011;9744;49.364;7.484;2023-04-19T01:50:20;14.52;;;10.55;;
19219;SDS011;9744;49.364;7.484;2023-04-19T01:52:47;19.33;;;11.88;;
19219;SDS011;9744;49.364;7.484;2023-04-19T01:55:14;17.80;;;10.63;;
19219;SDS011;9744;49.364;7.484;2023-04-19T01:57:43;16.38;;;11.57;;
19219;SDS011;9744;49.364;7.484;2023-04-19T02:00:11;14.98;;;10.48;;
19219;SDS011;9744;49.364;7.484;2023-04-19T02:02:42;17.00;;;10.07;;
19219;SDS011;9744;49.364;7.484;2023-04-19T02:05:09;16.67;;;10.43;;
19219;SDS011;9744;49.364;7.484;2023-04-19T02:07:36;18.98;;;12.00;;
19219;SDS011;9744;49.364;7.484;2023-04-19T02:10:04;19.35;;;11.98;;
19219;SDS011;9744;49.364;7.484;2023-04-19T02:15:29;18.02;;;11.80;;
19219;SDS011;9744;49.364;7.484;2023-04-19T02:17:56;17.10;;;10.10;;
19219;SDS011;9744;49.364;7.484;2023-04-19T02:20:24;15.85;;;11.02;;
19219;SDS011;9744;49.364;7.484;2023-04-19T02:22:51;17.52;;;10.88;;
19219;SDS011;9744;49.364;7.484;2023-04-19T02:25:18;17.77;;;12.32;;
19219;SDS011;9744;49.364;7.484;2023-04-19T02:27:46;17.65;;;11.05;;
19219;SDS011;9744;49.364;7.484;2023-04-19T02:30:13;15.95;;;11.15;;
19219;SDS011;9744;49.364;7.484;2023-04-19T02:32:42;16.40;;;10.80;;
19219;SDS011;9744;49.364;7.484;2023-04-19T02:35:11;16.85;;;11.45;;
19219;SDS011;9744;49.364;7.484;2023-04-19T02:37:38;17.33;;;10.73;;
19219;SDS011;9744;49.364;7.484;2023-04-19T02:40:06;16.48;;;11.05;;
19219;SDS011;9744;49.364;7.484;2023-04-19T02:42:34;17.83;;;11.80;;
19219;SDS011;9744;49.364;7.484;2023-04-19T02:45:01;18.25;;;10.32;;
19219;SDS011;9744;49.364;7.484;2023-04-19T02:47:29;16.23;;;10.68;;
19219;SDS011;9744;49.364;7.484;2023-04-19T02:49:57;16.52;;;10.70;;
19219;SDS011;9744;49.364;7.484;2023-04-19T02:52:25;17.13;;;10.57;;
19219;SDS011;9744;49.364;7.484;2023-04-19T02:54:53;15.93;;;11.02;;
19219;SDS011;9744;49.364;7.484;2023-04-19T02:57:20;16.20;;;10.18;;
19219;SDS011;9744;49.364;7.484;2023-04-19T02:59:47;15.35;;;9.25;;
19219;SDS011;9744;49.364;7.484;2023-04-19T03:02:15;17.73;;;10.82;;
19219;SDS011;9744;49.364;7.484;2023-04-19T03:04:42;14.02;;;9.73;;
19219;SDS011;9744;49.364;7.484;2023-04-19T03:07:11;13.85;;;9.23;;
19219;SDS011;9744;49.364;7.484;2023-04-19T03:09:39;16.98;;;10.48;;
19219;SDS011;9744;49.364;7.484;2023-04-19T03:12:06;16.85;;;10.27;;
19219;SDS011;9744;49.364;7.484;2023-04-19T03:14:33;15.38;;;10.18;;
19219;SDS011;9744;49.364;7.484;2023-04-19T03:17:01;18.90;;;10.65;;
19219;SDS011;9744;49.364;7.484;2023-04-19T03:19:29;14.15;;;8.73;;
19219;SDS011;9744;49.364;7.484;2023-04-19T03:21:56;15.63;;;9.40;;
19219;SDS011;9744;49.364;7.484;2023-04-19T03:24:27;15.13;;;9.80;;
19219;SDS011;9744;49.364;7.484;2023-04-19T03:26:57;16.33;;;9.73;;
19219;SDS011;9744;49.364;7.484;2023-04-19T03:29:28;15.32;;;9.40;;
19219;SDS011;9744;49.364;7.484;2023-04-19T03:31:59;13.93;;;8.98;;
19219;SDS011;9744;49.364;7.484;2023-04-19T03:34:28;18.05;;;9.07;;
19219;SDS011;9744;49.364;7.484;2023-04-19T03:36:55;15.73;;;9.77;;
19219;SDS011;9744;49.364;7.484;2023-04-19T03:39:23;14.98;;;9.18;;
19219;SDS011;9744;49.364;7.484;2023-04-19T03:41:57;19.38;;;9.55;;
19219;SDS011;9744;49.364;7.484;2023-04-19T03:44:44;14.90;;;9.35;;
19219;SDS011;9744;49.364;7.484;2023-04-19T03:49:47;12.23;;;8.48;;
19219;SDS011;9744;49.364;7.484;2023-04-19T03:52:15;14.02;;;9.10;;
19219;SDS011;9744;49.364;7.484;2023-04-19T03:54:43;11.65;;;8.10;;
19219;SDS011;9744;49.364;7.484;2023-04-19T03:57:24;14.85;;;9.60;;
19219;SDS011;9744;49.364;7.484;2023-04-19T03:59:52;13.27;;;8.40;;
19219;SDS011;9744;49.364;7.484;2023-04-19T04:02:19;12.40;;;7.97;;
19219;SDS011;9744;49.364;7.484;2023-04-19T04:04:51;11.43;;;7.55;;
19219;SDS011;9744;49.364;7.484;2023-04-19T04:07:20;11.20;;;7.97;;
19219;SDS011;9744;49.364;7.484;2023-04-19T04:09:47;11.32;;;7.53;;
19219;SDS011;9744;49.364;7.484;2023-04-19T04:12:15;12.95;;;8.57;;
19219;SDS011;9744;49.364;7.484;2023-04-19T04:14:43;13.90;;;8.25;;
19219;SDS011;9744;49.364;7.484;2023-04-19T04:17:11;11.48;;;7.50;;
19219;SDS011;9744;49.364;7.484;2023-04-19T04:19:39;14.55;;;8.18;;
19219;SDS011;9744;49.364;7.484;2023-04-19T04:22:07;10.27;;;7.35;;
19219;SDS011;9744;49.364;7.484;2023-04-19T04:24:38;9.85;;;6.90;;
19219;SDS011;9744;49.364;7.484;2023-04-19T04:27:20;11.38;;;7.18;;
19219;SDS011;9744;49.364;7.484;2023-04-19T04:29:52;9.93;;;7.13;;
19219;SDS011;9744;49.364;7.484;2023-04-19T04:32:22;12.57;;;8.32;;
19219;SDS011;9744;49.364;7.484;2023-04-19T04:34:53;10.65;;;6.97;;
19219;SDS011;9744;49.364;7.484;2023-04-19T04:37:30;13.07;;;8.90;;
19219;SDS011;9744;49.364;7.484;2023-04-19T04:39:58;13.65;;;8.13;;
19219;SDS011;9744;49.364;7.484;2023-04-19T04:42:26;16.33;;;8.48;;
19219;SDS011;9744;49.364;7.484;2023-04-19T04:44:57;16.30;;;9.43;;
19219;SDS011;9744;49.364;7.484;2023-04-19T04:47:29;20.98;;;10.63;;
19219;SDS011;9744;49.364;7.484;2023-04-19T04:49:59;19.08;;;10.38;;
19219;SDS011;9744;49.364;7.484;2023-04-19T04:52:27;22.92;;;10.68;;
19219;SDS011;9744;49.364;7.484;2023-04-19T04:55:17;24.90;;;11.57;;
19219;SDS011;9744;49.364;7.484;2023-04-19T04:57:46;27.20;;;12.85;;
19219;SDS011;9744;49.364;7.484;2023-04-19T05:00:21;26.20;;;12.23;;
19219;SDS011;9744;49.364;7.484;2023-04-19T05:03:02;35.60;;;13.93;;
19219;SDS011;9744;49.364;7.484;2023-04-19T05:05:33;22.15;;;10.30;;
19219;SDS011;9744;49.364;7.484;2023-04-19T05:08:00;31.63;;;12.98;;
19219;SDS011;9744;49.364;7.484;2023-04-19T05:10:28;21.38;;;10.43;;
19219;SDS011;9744;49.364;7.484;2023-04-19T05:12:55;22.15;;;10.55;;
19219;SDS011;9744;49.364;7.484;2023-04-19T05:15:24;24.05;;;10.77;;
19219;SDS011;9744;49.364;7.484;2023-04-19T05:17:53;18.75;;;9.80;;
19219;SDS011;9744;49.364;7.484;2023-04-19T05:20:21;15.00;;;8.93;;
19219;SDS011;9744;49.364;7.484;2023-04-19T05:22:56;13.25;;;8.35;;
19219;SDS011;9744;49.364;7.484;2023-04-19T05:25:24;13.88;;;7.95;;
19219;SDS011;9744;49.364;7.484;2023-04-19T05:27:52;11.95;;;8.13;;
19219;SDS011;9744;49.364;7.484;2023-04-19T05:30:20;11.23;;;7.43;;
19219;SDS011;9744;49.364;7.484;2023-04-19T05:32:48;14.20;;;9.02;;
19219;SDS011;9744;49.364;7.484;2023-04-19T05:35:17;15.15;;;10.35;;
19219;SDS011;9744;49.364;7.484;2023-04-19T05:37:44;17.35;;;10.13;;
19219;SDS011;9744;49.364;7.484;2023-04-19T05:40:11;14.55;;;10.20;;
19219;SDS011;9744;49.364;7.484;2023-04-19T05:42:41;19.98;;;11.88;;
19219;SDS011;9744;49.364;7.484;2023-04-19T05:45:09;15.15;;;9.30;;
19219;SDS011;9744;49.364;7.484;2023-04-19T05:47:39;16.92;;;10.40;;
19219;SDS011;9744;49.364;7.484;2023-04-19T05:50:31;17.70;;;11.40;;
19219;SDS011;9744;49.364;7.484;2023-04-19T05:53:17;13.27;;;9.27;;
19219;SDS011;9744;49.364;7.484;2023-04-19T05:55:44;12.23;;;8.30;;
19219;SDS011;9744;49.364;7.484;2023-04-19T05:58:12;14.02;;;8.40;;
19219;SDS011;9744;49.364;7.484;2023-04-19T06:00:39;11.57;;;7.63;;
19219;SDS011;9744;49.364;7.484;2023-04-19T06:03:11;13.10;;;8.02;;
19219;SDS011;9744;49.364;7.484;2023-04-19T06:05:41;12.55;;;8.63;;
19219;SDS011;9744;49.364;7.484;2023-04-19T06:08:09;13.73;;;8.55;;
19219;SDS011;9744;49.364;7.484;2023-04-19T06:10:38;13.65;;;8.77;;
19219;SDS011;9744;49.364;7.484;2023-04-19T06:13:08;14.70;;;8.70;;
19219;SDS011;9744;49.364;7.484;2023-04-19T06:15:36;12.52;;;8.32;;
19219;SDS011;9744;49.364;7.484;2023-04-19T06:18:04;15.43;;;9.38;;
19219;SDS011;9744;49.364;7.484;2023-04-19T06:20:34;12.60;;;8.45;;
19219;SDS011;9744;49.364;7.484;2023-04-19T06:23:03;14.85;;;8.65;;
19219;SDS011;9744;49.364;7.484;2023-04-19T06:25:32;13.18;;;8.57;;
19219;SDS011;9744;49.364;7.484;2023-04-19T06:28:00;11.38;;;8.05;;
19219;SDS011;9744;49.364;7.484;2023-04-19T06:30:27;12.70;;;8.70;;
19219;SDS011;9744;49.364;7.484;2023-04-19T06:32:55;13.70;;;8.38;;
19219;SDS011;9744;49.364;7.484;2023-04-19T06:35:22;19.75;;;10.43;;
19219;SDS011;9744;49.364;7.484;2023-04-19T06:37:50;14.73;;;9.70;;
19219;SDS011;9744;49.364;7.484;2023-04-19T06:40:19;12.35;;;8.07;;
19219;SDS011;9744;49.364;7.484;2023-04-19T06:42:46;14.23;;;9.02;;
19219;SDS011;9744;49.364;7.484;2023-04-19T06:45:13;15.48;;;9.52;;
19219;SDS011;9744;49.364;7.484;2023-04-19T06:47:41;13.48;;;9.05;;
19219;SDS011;9744;49.364;7.484;2023-04-19T06:50:09;12.73;;;8.75;;
19219;SDS011;9744;49.364;7.484;2023-04-19T06:52:37;14.15;;;9.30;;
19219;SDS011;9744;49.364;7.484;2023-04-19T06:55:04;14.90;;;9.27;;
19219;SDS011;9744;49.364;7.484;2023-04-19T06:57:33;19.25;;;10.40;;
19219;SDS011;9744;49.364;7.484;2023-04-19T07:00:01;13.73;;;9.05;;
19219;SDS011;9744;49.364;7.484;2023-04-19T07:02:32;13.30;;;8.60;;
19219;SDS011;9744;49.364;7.484;2023-04-19T07:05:00;14.68;;;10.23;;
19219;SDS011;9744;49.364;7.484;2023-04-19T07:07:28;17.10;;;10.32;;
19219;SDS011;9744;49.364;7.484;2023-04-19T07:09:55;14.93;;;8.82;;
19219;SDS011;9744;49.364;7.484;2023-04-19T07:12:22;15.60;;;10.32;;
19219;SDS011;9744;49.364;7.484;2023-04-19T07:14:51;16.65;;;10.27;;
19219;SDS011;9744;49.364;7.484;2023-04-19T07:17:20;15.23;;;9.25;;
19219;SDS011;9744;49.364;7.484;2023-04-19T07:19:48;13.35;;;8.25;;
19219;SDS011;9744;49.364;7.484;2023-04-19T07:22:15;16.35;;;10.43;;
19219;SDS011;9744;49.364;7.484;2023-04-19T07:24:42;13.07;;;9.30;;
19219;SDS011;9744;49.364;7.484;2023-04-19T07:27:09;15.98;;;10.25;;
19219;SDS011;9744;49.364;7.484;2023-04-19T07:29:38;14.15;;;9.25;;
19219;SDS011;9744;49.364;7.484;2023-04-19T07:32:07;13.75;;;9.98;;
19219;SDS011;9744;49.364;7.484;2023-04-19T07:34:37;16.67;;;10.15;;
19219;SDS011;9744;49.364;7.484;2023-04-19T07:37:05;13.32;;;8.93;;
19219;SDS011;9744;49.364;7.484;2023-04-19T07:39:32;14.68;;;9.48;;
19219;SDS011;9744;49.364;7.484;2023-04-19T07:41:59;14.82;;;9.50;;
19219;SDS011;9744;49.364;7.484;2023-04-19T07:44:27;13.95;;;9.23;;
19219;SDS011;9744;49.364;7.484;2023-04-19T07:46:54;12.35;;;8.73;;
19219;SDS011;9744;49.364;7.484;2023-04-19T07:49:22;12.45;;;8.77;;
19219;SDS011;9744;49.364;7.484;2023-04-19T07:51:50;14.50;;;9.13;;
19219;SDS011;9744;49.364;7.484;2023-04-19T07:54:17;12.75;;;8.60;;
19219;SDS011;9744;49.364;7.484;2023-04-19T07:56:45;14.35;;;8.45;;
19219;SDS011;9744;49.364;7.484;2023-04-19T07:59:12;11.68;;;7.95;;
19219;SDS011;9744;49.364;7.484;2023-04-19T08:01:40;12.20;;;8.18;;
19219;SDS011;9744;49.364;7.484;2023-04-19T08:04:09;11.63;;;7.43;;
19219;SDS011;9744;49.364;7.484;2023-04-19T08:06:40;9.63;;;6.57;;
19219;SDS011;9744;49.364;7.484;2023-04-19T08:09:08;12.60;;;8.48;;
19219;SDS011;9744;49.364;7.484;2023-04-19T08:11:35;10.15;;;7.50;;
19219;SDS011;9744;49.364;7.484;2023-04-19T08:14:02;12.70;;;7.75;;
19219;SDS011;9744;49.364;7.484;2023-04-19T08:16:29;11.85;;;8.07;;
19219;SDS011;9744;49.364;7.484;2023-04-19T08:18:57;14.05;;;7.63;;
19219;SDS011;9744;49.364;7.484;2023-04-19T08:21:24;10.05;;;6.93;;
19219;SDS011;9744;49.364;7.484;2023-04-19T08:23:53;9.90;;;7.18;;
19219;SDS011;9744;49.364;7.484;2023-04-19T08:26:22;14.57;;;7.47;;
19219;SDS011;9744;49.364;7.484;2023-04-19T08:28:49;11.35;;;6.95;;
19219;SDS011;9744;49.364;7.484;2023-04-19T08:31:16;11.07;;;6.97;;
19219;SDS011;9744;49.364;7.484;2023-04-19T08:33:45;9.32;;;7.10;;
19219;SDS011;9744;49.364;7.484;2023-04-19T08:36:12;14.80;;;7.20;;
19219;SDS011;9744;49.364;7.484;2023-04-19T08:38:40;12.15;;;8.20;;
19219;SDS011;9744;49.364;7.484;2023-04-19T08:41:11;12.10;;;7.10;;
19219;SDS011;9744;49.364;7.484;2023-04-19T08:43:39;10.07;;;7.00;;
19219;SDS011;9744;49.364;7.484;2023-04-19T08:46:09;11.20;;;6.95;;
19219;SDS011;9744;49.364;7.484;2023-04-19T08:48:37;14.70;;;6.97;;
19219;SDS011;9744;49.364;7.484;2023-04-19T08:51:06;11.95;;;7.00;;
19219;SDS011;9744;49.364;7.484;2023-04-19T08:53:35;8.65;;;6.35;;
19219;SDS011;9744;49.364;7.484;2023-04-19T08:56:03;9.18;;;6.63;;
19219;SDS011;9744;49.364;7.484;2023-04-19T08:58:34;10.02;;;6.07;;
19219;SDS011;9744;49.364;7.484;2023-04-19T09:01:03;10.73;;;6.20;;
19219;SDS011;9744;49.364;7.484;2023-04-19T09:03:31;10.93;;;6.25;;
19219;SDS011;9744;49.364;7.484;2023-04-19T09:05:58;10.00;;;6.93;;
19219;SDS011;9744;49.364;7.484;2023-04-19T09:08:27;11.10;;;6.40;;
19219;SDS011;9744;49.364;7.484;2023-04-19T09:10:56;10.25;;;7.00;;
19219;SDS011;9744;49.364;7.484;2023-04-19T09:13:24;11.18;;;6.68;;
19219;SDS011;9744;49.364;7.484;2023-04-19T09:15:53;11.98;;;7.75;;
19219;SDS011;9744;49.364;7.484;2023-04-19T09:18:21;14.00;;;8.25;;
19219;SDS011;9744;49.364;7.484;2023-04-19T09:20:50;9.65;;;6.60;;
19219;SDS011;9744;49.364;7.484;2023-04-19T09:23:22;9.50;;;7.20;;
19219;SDS011;9744;49.364;7.484;2023-04-19T09:25:51;10.48;;;7.07;;
19219;SDS011;9744;49.364;7.484;2023-04-19T09:28:19;12.45;;;8.18;;
19219;SDS011;9744;49.364;7.484;2023-04-19T09:30:46;12.38;;;8.05;;
19219;SDS011;9744;49.364;7.484;2023-04-19T09:33:34;9.85;;;7.35;;
19219;SDS011;9744;49.364;7.484;2023-04-19T09:36:04;12.80;;;8.10;;
19219;SDS011;9744;49.364;7.484;2023-04-19T09:38:39;14.88;;;8.77;;
19219;SDS011;9744;49.364;7.484;2023-04-19T09:41:13;11.32;;;8.02;;
19219;SDS011;9744;49.364;7.484;2023-04-19T09:43:41;14.52;;;9.23;;
19219;SDS011;9744;49.364;7.484;2023-04-19T09:46:08;13.63;;;9.43;;
19219;SDS011;9744;49.364;7.484;2023-04-19T09:49:02;14.52;;;9.15;;
19219;SDS011;9744;49.364;7.484;2023-04-19T09:51:42;14.82;;;9.38;;
19219;SDS011;9744;49.364;7.484;2023-04-19T09:54:10;13.27;;;9.45;;
19219;SDS011;9744;49.364;7.484;2023-04-19T09:56:39;11.50;;;8.65;;
19219;SDS011;9744;49.364;7.484;2023-04-19T09:59:07;11.80;;;8.90;;
19219;SDS011;9744;49.364;7.484;2023-04-19T10:01:37;11.48;;;8.27;;
19219;SDS011;9744;49.364;7.484;2023-04-19T10:04:10;10.05;;;7.32;;
19219;SDS011;9744;49.364;7.484;2023-04-19T10:06:38;11.55;;;7.50;;
19219;SDS011;9744;49.364;7.484;2023-04-19T10:09:06;9.52;;;7.85;;
19219;SDS011;9744;49.364;7.484;2023-04-19T10:11:35;8.80;;;6.95;;
19219;SDS011;9744;49.364;7.484;2023-04-19T10:14:05;12.98;;;9.52;;
19219;SDS011;9744;49.364;7.484;2023-04-19T10:16:34;8.50;;;6.63;;
19219;SDS011;9744;49.364;7.484;2023-04-19T10:19:02;14.57;;;8.35;;
19219;SDS011;9744;49.364;7.484;2023-04-19T10:21:34;12.05;;;8.52;;
19219;SDS011;9744;49.364;7.484;2023-04-19T10:24:02;9.60;;;7.13;;
19219;SDS011;9744;49.364;7.484;2023-04-19T10:26:30;8.45;;;5.93;;
19219;SDS011;9744;49.364;7.484;2023-04-19T10:29:53;18.88;;;12.65;;
19219;SDS011;9744;49.364;7.484;2023-04-19T10:32:25;12.90;;;9.95;;
19219;SDS011;9744;49.364;7.484;2023-04-19T10:34:53;9.52;;;7.00;;
19219;SDS011;9744;49.364;7.484;2023-04-19T10:37:22;11.25;;;8.75;;
19219;SDS011;9744;49.364;7.484;2023-04-19T10:39:51;15.68;;;9.52;;
19219;SDS011;9744;49.364;7.484;2023-04-19T10:42:19;10.73;;;7.03;;
19219;SDS011;9744;49.364;7.484;2023-04-19T10:47:51;11.82;;;7.68;;
19219;SDS011;9744;49.364;7.484;2023-04-19T10:50:18;9.15;;;6.60;;
19219;SDS011;9744;49.364;7.484;2023-04-19T10:52:52;9.68;;;8.02;;
19219;SDS011;9744;49.364;7.484;2023-04-19T10:55:20;12.90;;;7.78;;
19219;SDS011;9744;49.364;7.484;2023-04-19T10:57:59;10.18;;;7.22;;
19219;SDS011;9744;49.364;7.484;2023-04-19T11:00:28;9.77;;;8.07;;
19219;SDS011;9744;49.364;7.484;2023-04-19T11:02:57;10.32;;;7.68;;
19219;SDS011;9744;49.364;7.484;2023-04-19T11:05:29;11.55;;;8.18;;
19219;SDS011;9744;49.364;7.484;2023-04-19T11:08:22;10.77;;;7.45;;
19219;SDS011;9744;49.364;7.484;2023-04-19T11:10:50;12.30;;;8.20;;
19219;SDS011;9744;49.364;7.484;2023-04-19T11:13:21;10.68;;;7.60;;
19219;SDS011;9744;49.364;7.484;2023-04-19T11:15:49;14.65;;;8.00;;
19219;SDS011;9744;49.364;7.484;2023-04-19T11:18:17;13.07;;;8.35;;
19219;SDS011;9744;49.364;7.484;2023-04-19T11:20:44;12.50;;;8.05;;
19219;SDS011;9744;49.364;7.484;2023-04-19T11:23:14;11.65;;;8.55;;
19219;SDS011;9744;49.364;7.484;2023-04-19T11:25:45;12.60;;;8.30;;
19219;SDS011;9744;49.364;7.484;2023-04-19T11:28:14;12.10;;;8.43;;
19219;SDS011;9744;49.364;7.484;2023-04-19T11:30:42;12.57;;;9.73;;
19219;SDS011;9744;49.364;7.484;2023-04-19T11:33:11;11.98;;;9.07;;
19219;SDS011;9744;49.364;7.484;2023-04-19T11:35:38;15.50;;;10.63;;
19219;SDS011;9744;49.364;7.484;2023-04-19T11:38:06;13.98;;;10.05;;
19219;SDS011;9744;49.364;7.484;2023-04-19T11:40:33;14.48;;;9.38;;
19219;SDS011;9744;49.364;7.484;2023-04-19T11:43:04;13.88;;;9.77;;
19219;SDS011;9744;49.364;7.484;2023-04-19T11:45:32;15.68;;;8.90;;
19219;SDS011;9744;49.364;7.484;2023-04-19T11:48:01;16.85;;;10.00;;
19219;SDS011;9744;49.364;7.484;2023-04-19T11:50:30;14.30;;;9.70;;
19219;SDS011;9744;49.364;7.484;2023-04-19T11:53:09;15.88;;;10.27;;
19219;SDS011;9744;49.364;7.484;2023-04-19T11:55:38;13.10;;;8.10;;
19219;SDS011;9744;49.364;7.484;2023-04-19T11:58:21;12.00;;;8.32;;
19219;SDS011;9744;49.364;7.484;2023-04-19T12:00:49;19.45;;;9.35;;
19219;SDS011;9744;49.364;7.484;2023-04-19T12:03:19;11.45;;;7.75;;
19219;SDS011;9744;49.364;7.484;2023-04-19T12:05:51;12.57;;;7.43;;
19219;SDS011;9744;49.364;7.484;2023-04-19T12:08:28;10.30;;;7.10;;
19219;SDS011;9744;49.364;7.484;2023-04-19T12:10:57;10.63;;;7.18;;
19219;SDS011;9744;49.364;7.484;2023-04-19T12:13:26;9.90;;;6.40;;
19219;SDS011;9744;49.364;7.484;2023-04-19T12:15:53;11.40;;;6.35;;
19219;SDS011;9744;49.364;7.484;2023-04-19T12:18:21;10.73;;;7.45;;
19219;SDS011;9744;49.364;7.484;2023-04-19T12:20:49;12.77;;;6.65;;
19219;SDS011;9744;49.364;7.484;2023-04-19T12:23:17;11.20;;;7.68;;
19219;SDS011;9744;49.364;7.484;2023-04-19T12:25:48;9.95;;;6.70;;
19219;SDS011;9744;49.364;7.484;2023-04-19T12:28:16;10.05;;;6.03;;
19219;SDS011;9744;49.364;7.484;2023-04-19T12:30:44;9.43;;;6.45;;
19219;SDS011;9744;49.364;7.484;2023-04-19T12:33:11;9.20;;;6.78;;
19219;SDS011;9744;49.364;7.484;2023-04-19T12:35:44;10.68;;;7.63;;
19219;SDS011;9744;49.364;7.484;2023-04-19T12:38:11;16.05;;;8.68;;
19219;SDS011;9744;49.364;7.484;2023-04-19T12:40:38;11.00;;;7.78;;
19219;SDS011;9744;49.364;7.484;2023-04-19T12:43:06;9.38;;;7.35;;
19219;SDS011;9744;49.364;7.484;2023-04-19T12:45:33;10.02;;;6.93;;
19219;SDS011;9744;49.364;7.484;2023-04-19T12:48:04;7.47;;;6.00;;
19219;SDS011;9744;49.364;7.484;2023-04-19T12:50:32;15.48;;;7.35;;
19219;SDS011;9744;49.364;7.484;2023-04-19T12:52:59;15.68;;;7.63;;
19219;SDS011;9744;49.364;7.484;2023-04-19T12:55:26;15.35;;;6.80;;
19219;SDS011;9744;49.364;7.484;2023-04-19T12:57:53;7.22;;;5.75;;
19219;SDS011;9744;49.364;7.484;2023-04-19T13:00:20;11.15;;;6.00;;
19219;SDS011;9744;49.364;7.484;2023-04-19T13:02:48;9.05;;;5.72;;
19219;SDS011;9744;49.364;7.484;2023-04-19T13:05:17;11.63;;;6.20;;
19219;SDS011;9744;49.364;7.484;2023-04-19T13:07:45;8.80;;;5.90;;
19219;SDS011;9744;49.364;7.484;2023-04-19T13:10:12;6.57;;;5.28;;
19219;SDS011;9744;49.364;7.484;2023-04-19T13:12:39;7.03;;;5.20;;
19219;SDS011;9744;49.364;7.484;2023-04-19T13:15:07;9.93;;;5.40;;
19219;SDS011;9744;49.364;7.484;2023-04-19T13:17:35;9.25;;;4.80;;
19219;SDS011;9744;49.364;7.484;2023-04-19T13:20:02;6.55;;;5.25;;
19219;SDS011;9744;49.364;7.484;2023-04-19T13:22:32;6.95;;;5.65;;
19219;SDS011;9744;49.364;7.484;2023-04-19T13:24:59;8.85;;;4.90;;
19219;SDS011;9744;49.364;7.484;2023-04-19T13:27:28;6.47;;;4.63;;
19219;SDS011;9744;49.364;7.484;2023-04-19T13:29:55;11.20;;;5.38;;
19219;SDS011;9744;49.364;7.484;2023-04-19T13:32:23;7.72;;;4.40;;
19219;SDS011;9744;49.364;7.484;2023-04-19T13:34:50;8.25;;;4.43;;
19219;SDS011;9744;49.364;7.484;2023-04-19T13:37:18;4.85;;;4.13;;
19219;SDS011;9744;49.364;7.484;2023-04-19T13:39:46;7.82;;;5.22;;
19219;SDS011;9744;49.364;7.484;2023-04-19T13:42:14;9.65;;;5.22;;
19219;SDS011;9744;49.364;7.484;2023-04-19T13:44:41;11.23;;;5.65;;
19219;SDS011;9744;49.364;7.484;2023-04-19T13:47:08;8.20;;;4.38;;
19219;SDS011;9744;49.364;7.484;2023-04-19T13:49:36;6.72;;;4.30;;
19219;SDS011;9744;49.364;7.484;2023-04-19T13:52:03;7.30;;;4.55;;
19219;SDS011;9744;49.364;7.484;2023-04-19T13:54:30;7.55;;;4.28;;
19219;SDS011;9744;49.364;7.484;2023-04-19T13:56:58;6.38;;;4.38;;
19219;SDS011;9744;49.364;7.484;2023-04-19T13:59:27;5.30;;;3.92;;
19219;SDS011;9744;49.364;7.484;2023-04-19T14:01:54;7.90;;;3.40;;
19219;SDS011;9744;49.364;7.484;2023-04-19T14:04:21;3.92;;;2.60;;
19219;SDS011;9744;49.364;7.484;2023-04-19T14:06:49;4.88;;;3.78;;
19219;SDS011;9744;49.364;7.484;2023-04-19T14:09:16;5.10;;;3.55;;
19219;SDS011;9744;49.364;7.484;2023-04-19T14:11:43;5.50;;;3.55;;
19219;SDS011;9744;49.364;7.484;2023-04-19T14:14:12;7.82;;;3.58;;
19219;SDS011;9744;49.364;7.484;2023-04-19T14:16:40;3.83;;;2.97;;
19219;SDS011;9744;49.364;7.484;2023-04-19T14:19:07;5.20;;;3.15;;
19219;SDS011;9744;49.364;7.484;2023-04-19T14:21:34;9.40;;;2.63;;
19219;SDS011;9744;49.364;7.484;2023-04-19T14:24:01;4.75;;;2.95;;
19219;SDS011;9744;49.364;7.484;2023-04-19T14:26:29;3.63;;;2.33;;
19219;SDS011;9744;49.364;7.484;2023-04-19T14:28:56;4.68;;;2.65;;
19219;SDS011;9744;49.364;7.484;2023-04-19T14:31:24;7.38;;;2.90;;
19219;SDS011;9744;49.364;7.484;2023-04-19T14:33:52;4.70;;;3.20;;
19219;SDS011;9744;49.364;7.484;2023-04-19T14:36:19;4.68;;;3.33;;
19219;SDS011;9744;49.364;7.484;2023-04-19T14:38:46;6.03;;;3.50;;
19219;SDS011;9744;49.364;7.484;2023-04-19T14:41:13;5.80;;;3.63;;
19219;SDS011;9744;49.364;7.484;2023-04-19T14:43:40;6.75;;;3.45;;
19219;SDS011;9744;49.364;7.484;2023-04-19T14:46:08;6.43;;;3.42;;
19219;SDS011;9744;49.364;7.484;2023-04-19T14:48:36;4.65;;;3.58;;
19219;SDS011;9744;49.364;7.484;2023-04-19T14:51:03;6.13;;;3.13;;
19219;SDS011;9744;49.364;7.484;2023-04-19T14:53:31;4.00;;;2.78;;
19219;SDS011;9744;49.364;7.484;2023-04-19T14:55:58;3.65;;;2.42;;
19219;SDS011;9744;49.364;7.484;2023-04-19T14:58:28;8.40;;;2.70;;
19219;SDS011;9744;49.364;7.484;2023-04-19T15:00:55;4.95;;;2.38;;
19219;SDS011;9744;49.364;7.484;2023-04-19T15:03:23;3.08;;;2.13;;
19219;SDS011;9744;49.364;7.484;2023-04-19T15:05:52;3.55;;;2.00;;
19219;SDS011;9744;49.364;7.484;2023-04-19T15:08:19;4.65;;;2.20;;